sensor_id;sensor_type;location;lat;lon;timestamp;P1;durP1;ratioP1;P2;durP2;ratioP2
31966;SDS011;18496;52.042;6.812;2022-12-07T00:00:23;21.38;;;12.20;;
31966;SDS011;18496;52.042;6.812;2022-12-07T00:02:27;23.33;;;12.27;;
31966;SDS011;18496;52.042;6.812;2022-12-07T00:04:30;21.42;;;12.80;;
31966;SDS011;18496;52.042;6.812;2022-12-07T00:06:35;23.50;;;11.60;;
31966;SDS011;18496;52.042;6.812;2022-12-07T00:08:40;24.35;;;11.85;;
31966;SDS011;18496;52.042;6.812;2022-12-07T00:10:44;25.50;;;11.95;;
31966;SDS011;18496;52.042;6.812;2022-12-07T00:12:48;21.27;;;12.27;;
31966;SDS011;18496;52.042;6.812;2022-12-07T00:14:53;17.48;;;11.48;;
31966;SDS011;18496;52.042;6.812;2022-12-07T00:16:56;21.67;;;11.30;;
31966;SDS011;18496;52.042;6.812;2022-12-07T00:19:00;19.48;;;10.38;;
31966;SDS011;18496;52.042;6.812;2022-12-07T00:21:09;26.23;;;12.00;;
31966;SDS011;18496;52.042;6.812;2022-12-07T00:23:24;18.73;;;11.15;;
31966;SDS011;18496;52.042;6.812;2022-12-07T00:25:27;22.35;;;12.35;;
31966;SDS011;18496;52.042;6.812;2022-12-07T00:27:31;16.13;;;10.55;;
31966;SDS011;18496;52.042;6.812;2022-12-07T00:29:34;18.75;;;11.05;;
31966;SDS011;18496;52.042;6.812;2022-12-07T00:31:39;22.98;;;11.60;;
31966;SDS011;18496;52.042;6.812;2022-12-07T00:33:43;22.05;;;11.98;;
31966;SDS011;18496;52.042;6.812;2022-12-07T00:35:47;22.38;;;11.27;;
31966;SDS011;18496;52.042;6.812;2022-12-07T00:40:02;17.38;;;10.95;;
31966;SDS011;18496;52.042;6.812;2022-12-07T00:42:05;19.38;;;11.52;;
31966;SDS011;18496;52.042;6.812;2022-12-07T00:44:09;19.17;;;11.43;;
31966;SDS011;18496;52.042;6.812;2022-12-07T00:46:13;17.92;;;10.43;;
31966;SDS011;18496;52.042;6.812;2022-12-07T00:48:17;18.85;;;11.02;;
31966;SDS011;18496;52.042;6.812;2022-12-07T00:50:21;21.73;;;11.30;;
31966;SDS011;18496;52.042;6.812;2022-12-07T00:52:25;24.95;;;11.90;;
31966;SDS011;18496;52.042;6.812;2022-12-07T00:54:29;20.23;;;10.50;;
31966;SDS011;18496;52.042;6.812;2022-12-07T00:56:32;27.33;;;10.75;;
31966;SDS011;18496;52.042;6.812;2022-12-07T00:58:36;20.08;;;10.68;;
31966;SDS011;18496;52.042;6.812;2022-12-07T01:00:41;17.70;;;10.45;;
31966;SDS011;18496;52.042;6.812;2022-12-07T01:02:46;19.70;;;10.57;;
31966;SDS011;18496;52.042;6.812;2022-12-07T01:04:49;24.58;;;11.40;;
31966;SDS011;18496;52.042;6.812;2022-12-07T01:06:53;20.10;;;10.35;;
31966;SDS011;18496;52.042;6.812;2022-12-07T01:08:56;21.33;;;10.95;;
31966;SDS011;18496;52.042;6.812;2022-12-07T01:11:01;20.10;;;10.70;;
31966;SDS011;18496;52.042;6.812;2022-12-07T01:13:06;18.65;;;10.55;;
31966;SDS011;18496;52.042;6.812;2022-12-07T01:15:10;19.80;;;10.25;;
31966;SDS011;18496;52.042;6.812;2022-12-07T01:17:14;15.10;;;9.45;;
31966;SDS011;18496;52.042;6.812;2022-12-07T01:19:17;19.33;;;9.88;;
31966;SDS011;18496;52.042;6.812;2022-12-07T01:21:31;16.65;;;9.77;;
31966;SDS011;18496;52.042;6.812;2022-12-07T01:23:38;23.73;;;10.35;;
31966;SDS011;18496;52.042;6.812;2022-12-07T01:25:42;14.52;;;9.32;;
31966;SDS011;18496;52.042;6.812;2022-12-07T01:27:46;18.90;;;10.02;;
31966;SDS011;18496;52.042;6.812;2022-12-07T01:29:50;19.10;;;10.13;;
31966;SDS011;18496;52.042;6.812;2022-12-07T01:31:54;14.55;;;8.77;;
31966;SDS011;18496;52.042;6.812;2022-12-07T01:33:58;19.98;;;9.48;;
31966;SDS011;18496;52.042;6.812;2022-12-07T01:36:14;16.98;;;9.25;;
31966;SDS011;18496;52.042;6.812;2022-12-07T01:38:22;18.83;;;9.95;;
31966;SDS011;18496;52.042;6.812;2022-12-07T01:40:26;18.77;;;9.85;;
31966;SDS011;18496;52.042;6.812;2022-12-07T01:42:29;14.88;;;8.55;;
31966;SDS011;18496;52.042;6.812;2022-12-07T01:45:14;16.00;;;9.35;;
31966;SDS011;18496;52.042;6.812;2022-12-07T01:47:15;17.90;;;9.32;;
31966;SDS011;18496;52.042;6.812;2022-12-07T01:51:25;12.43;;;8.05;;
31966;SDS011;18496;52.042;6.812;2022-12-07T01:53:29;24.67;;;8.27;;
31966;SDS011;18496;52.042;6.812;2022-12-07T01:55:35;16.88;;;8.60;;
31966;SDS011;18496;52.042;6.812;2022-12-07T01:57:44;13.95;;;7.72;;
31966;SDS011;18496;52.042;6.812;2022-12-07T01:59:51;17.92;;;8.65;;
31966;SDS011;18496;52.042;6.812;2022-12-07T02:01:56;14.98;;;7.28;;
31966;SDS011;18496;52.042;6.812;2022-12-07T02:04:00;19.30;;;7.82;;
31966;SDS011;18496;52.042;6.812;2022-12-07T02:06:04;12.23;;;7.60;;
31966;SDS011;18496;52.042;6.812;2022-12-07T02:08:09;14.18;;;8.23;;
31966;SDS011;18496;52.042;6.812;2022-12-07T02:10:15;15.05;;;8.02;;
31966;SDS011;18496;52.042;6.812;2022-12-07T02:12:23;15.60;;;7.80;;
31966;SDS011;18496;52.042;6.812;2022-12-07T02:14:27;15.98;;;7.70;;
31966;SDS011;18496;52.042;6.812;2022-12-07T02:16:38;11.68;;;7.28;;
31966;SDS011;18496;52.042;6.812;2022-12-07T02:19:14;16.08;;;7.47;;
31966;SDS011;18496;52.042;6.812;2022-12-07T02:26:27;16.70;;;7.10;;
31966;SDS011;18496;52.042;6.812;2022-12-07T02:28:56;14.73;;;7.70;;
31966;SDS011;18496;52.042;6.812;2022-12-07T02:31:18;12.40;;;7.43;;
31966;SDS011;18496;52.042;6.812;2022-12-07T02:42:30;13.02;;;7.55;;
31966;SDS011;18496;52.042;6.812;2022-12-07T02:44:38;9.52;;;6.55;;
31966;SDS011;18496;52.042;6.812;2022-12-07T02:46:44;15.73;;;6.88;;
31966;SDS011;18496;52.042;6.812;2022-12-07T02:48:55;18.27;;;7.47;;
31966;SDS011;18496;52.042;6.812;2022-12-07T02:51:02;12.15;;;6.63;;
31966;SDS011;18496;52.042;6.812;2022-12-07T02:53:27;12.18;;;6.57;;
31966;SDS011;18496;52.042;6.812;2022-12-07T02:55:38;12.95;;;7.15;;
31966;SDS011;18496;52.042;6.812;2022-12-07T02:57:54;17.80;;;7.35;;
31966;SDS011;18496;52.042;6.812;2022-12-07T03:00:25;15.55;;;6.70;;
31966;SDS011;18496;52.042;6.812;2022-12-07T03:05:15;11.85;;;6.35;;
31966;SDS011;18496;52.042;6.812;2022-12-07T03:10:09;11.68;;;6.15;;
31966;SDS011;18496;52.042;6.812;2022-12-07T03:12:24;18.50;;;5.95;;
31966;SDS011;18496;52.042;6.812;2022-12-07T03:14:35;13.70;;;6.63;;
31966;SDS011;18496;52.042;6.812;2022-12-07T03:16:52;12.93;;;5.53;;
31966;SDS011;18496;52.042;6.812;2022-12-07T03:19:13;8.65;;;5.50;;
31966;SDS011;18496;52.042;6.812;2022-12-07T03:21:42;15.40;;;5.57;;
31966;SDS011;18496;52.042;6.812;2022-12-07T03:23:56;12.45;;;5.38;;
31966;SDS011;18496;52.042;6.812;2022-12-07T03:26:03;17.25;;;5.70;;
31966;SDS011;18496;52.042;6.812;2022-12-07T03:28:13;18.75;;;5.82;;
31966;SDS011;18496;52.042;6.812;2022-12-07T03:30:27;11.45;;;5.40;;
31966;SDS011;18496;52.042;6.812;2022-12-07T03:35:17;8.68;;;4.70;;
31966;SDS011;18496;52.042;6.812;2022-12-07T03:39:38;9.23;;;4.65;;
31966;SDS011;18496;52.042;6.812;2022-12-07T03:41:47;15.38;;;5.43;;
31966;SDS011;18496;52.042;6.812;2022-12-07T03:43:53;14.77;;;5.15;;
31966;SDS011;18496;52.042;6.812;2022-12-07T03:48:25;10.50;;;4.90;;
31966;SDS011;18496;52.042;6.812;2022-12-07T03:50:43;11.90;;;4.72;;
31966;SDS011;18496;52.042;6.812;2022-12-07T03:52:54;13.00;;;4.50;;
31966;SDS011;18496;52.042;6.812;2022-12-07T03:55:12;9.23;;;4.85;;
31966;SDS011;18496;52.042;6.812;2022-12-07T03:57:26;10.98;;;4.68;;
31966;SDS011;18496;52.042;6.812;2022-12-07T03:59:31;11.95;;;5.03;;
31966;SDS011;18496;52.042;6.812;2022-12-07T04:01:36;11.90;;;4.95;;
31966;SDS011;18496;52.042;6.812;2022-12-07T04:03:40;9.25;;;4.90;;
31966;SDS011;18496;52.042;6.812;2022-12-07T04:05:43;12.80;;;4.55;;
31966;SDS011;18496;52.042;6.812;2022-12-07T04:07:47;10.98;;;4.35;;
31966;SDS011;18496;52.042;6.812;2022-12-07T04:09:51;8.50;;;4.60;;
31966;SDS011;18496;52.042;6.812;2022-12-07T04:11:55;12.88;;;4.28;;
31966;SDS011;18496;52.042;6.812;2022-12-07T04:13:58;10.65;;;4.60;;
31966;SDS011;18496;52.042;6.812;2022-12-07T04:16:20;7.53;;;3.92;;
31966;SDS011;18496;52.042;6.812;2022-12-07T04:18:24;7.13;;;3.92;;
31966;SDS011;18496;52.042;6.812;2022-12-07T04:20:28;9.15;;;4.20;;
31966;SDS011;18496;52.042;6.812;2022-12-07T04:22:31;10.63;;;3.58;;
31966;SDS011;18496;52.042;6.812;2022-12-07T04:24:35;8.75;;;4.05;;
31966;SDS011;18496;52.042;6.812;2022-12-07T04:26:39;13.48;;;4.10;;
31966;SDS011;18496;52.042;6.812;2022-12-07T04:28:43;9.98;;;3.72;;
31966;SDS011;18496;52.042;6.812;2022-12-07T04:30:47;8.13;;;3.53;;
31966;SDS011;18496;52.042;6.812;2022-12-07T04:32:50;12.55;;;3.50;;
31966;SDS011;18496;52.042;6.812;2022-12-07T04:34:54;6.88;;;3.40;;
31966;SDS011;18496;52.042;6.812;2022-12-07T04:36:58;10.93;;;3.83;;
31966;SDS011;18496;52.042;6.812;2022-12-07T04:39:02;5.82;;;3.25;;
31966;SDS011;18496;52.042;6.812;2022-12-07T04:41:07;20.88;;;4.30;;
31966;SDS011;18496;52.042;6.812;2022-12-07T04:43:12;9.90;;;3.40;;
31966;SDS011;18496;52.042;6.812;2022-12-07T04:45:15;9.10;;;3.10;;
31966;SDS011;18496;52.042;6.812;2022-12-07T04:47:19;10.93;;;3.13;;
31966;SDS011;18496;52.042;6.812;2022-12-07T04:49:23;9.30;;;3.60;;
31966;SDS011;18496;52.042;6.812;2022-12-07T04:51:28;9.02;;;3.45;;
31966;SDS011;18496;52.042;6.812;2022-12-07T04:53:32;6.97;;;2.78;;
31966;SDS011;18496;52.042;6.812;2022-12-07T04:55:35;13.30;;;3.13;;
31966;SDS011;18496;52.042;6.812;2022-12-07T04:57:45;10.10;;;3.28;;
31966;SDS011;18496;52.042;6.812;2022-12-07T04:59:48;10.90;;;3.00;;
31966;SDS011;18496;52.042;6.812;2022-12-07T05:01:52;9.88;;;3.25;;
31966;SDS011;18496;52.042;6.812;2022-12-07T05:03:56;10.52;;;3.05;;
31966;SDS011;18496;52.042;6.812;2022-12-07T05:05:59;7.10;;;3.03;;
31966;SDS011;18496;52.042;6.812;2022-12-07T05:08:03;6.10;;;2.40;;
31966;SDS011;18496;52.042;6.812;2022-12-07T05:10:07;16.58;;;3.53;;
31966;SDS011;18496;52.042;6.812;2022-12-07T05:12:11;9.45;;;2.45;;
31966;SDS011;18496;52.042;6.812;2022-12-07T05:14:16;15.10;;;2.65;;
31966;SDS011;18496;52.042;6.812;2022-12-07T05:16:21;7.43;;;3.25;;
31966;SDS011;18496;52.042;6.812;2022-12-07T05:18:25;7.53;;;2.97;;
31966;SDS011;18496;52.042;6.812;2022-12-07T05:20:28;7.88;;;2.92;;
31966;SDS011;18496;52.042;6.812;2022-12-07T05:22:32;6.03;;;2.53;;
31966;SDS011;18496;52.042;6.812;2022-12-07T05:24:36;8.60;;;2.80;;
31966;SDS011;18496;52.042;6.812;2022-12-07T05:26:39;4.85;;;2.13;;
31966;SDS011;18496;52.042;6.812;2022-12-07T05:28:43;5.50;;;2.60;;
31966;SDS011;18496;52.042;6.812;2022-12-07T05:30:47;11.23;;;2.60;;
31966;SDS011;18496;52.042;6.812;2022-12-07T05:32:51;11.43;;;2.55;;
31966;SDS011;18496;52.042;6.812;2022-12-07T05:34:54;7.78;;;2.45;;
31966;SDS011;18496;52.042;6.812;2022-12-07T05:36:58;9.95;;;2.33;;
31966;SDS011;18496;52.042;6.812;2022-12-07T05:39:04;9.63;;;2.63;;
31966;SDS011;18496;52.042;6.812;2022-12-07T05:41:08;4.88;;;2.33;;
31966;SDS011;18496;52.042;6.812;2022-12-07T05:43:35;8.02;;;2.63;;
31966;SDS011;18496;52.042;6.812;2022-12-07T05:45:39;5.95;;;2.22;;
31966;SDS011;18496;52.042;6.812;2022-12-07T05:47:42;9.95;;;2.92;;
31966;SDS011;18496;52.042;6.812;2022-12-07T05:49:46;9.75;;;2.50;;
31966;SDS011;18496;52.042;6.812;2022-12-07T05:51:50;7.88;;;2.10;;
31966;SDS011;18496;52.042;6.812;2022-12-07T05:53:53;7.68;;;2.75;;
31966;SDS011;18496;52.042;6.812;2022-12-07T05:55:58;3.55;;;1.90;;
31966;SDS011;18496;52.042;6.812;2022-12-07T05:58:01;10.75;;;2.63;;
31966;SDS011;18496;52.042;6.812;2022-12-07T06:00:23;6.45;;;2.60;;
31966;SDS011;18496;52.042;6.812;2022-12-07T06:02:27;5.32;;;2.58;;
31966;SDS011;18496;52.042;6.812;2022-12-07T06:04:31;8.20;;;2.65;;
31966;SDS011;18496;52.042;6.812;2022-12-07T06:06:40;9.80;;;3.08;;
31966;SDS011;18496;52.042;6.812;2022-12-07T06:08:44;9.95;;;2.50;;
31966;SDS011;18496;52.042;6.812;2022-12-07T06:10:47;9.95;;;4.90;;
31966;SDS011;18496;52.042;6.812;2022-12-07T06:13:11;23.17;;;8.93;;
31966;SDS011;18496;52.042;6.812;2022-12-07T06:15:15;13.60;;;6.95;;
31966;SDS011;18496;52.042;6.812;2022-12-07T06:17:18;8.98;;;3.40;;
31966;SDS011;18496;52.042;6.812;2022-12-07T06:19:22;9.00;;;2.97;;
31966;SDS011;18496;52.042;6.812;2022-12-07T06:21:26;13.07;;;2.92;;
31966;SDS011;18496;52.042;6.812;2022-12-07T06:23:29;8.38;;;2.83;;
31966;SDS011;18496;52.042;6.812;2022-12-07T06:25:33;6.65;;;2.10;;
31966;SDS011;18496;52.042;6.812;2022-12-07T06:27:37;7.45;;;2.85;;
31966;SDS011;18496;52.042;6.812;2022-12-07T06:29:40;6.00;;;2.83;;
31966;SDS011;18496;52.042;6.812;2022-12-07T06:31:44;6.95;;;2.35;;
31966;SDS011;18496;52.042;6.812;2022-12-07T06:33:49;12.65;;;2.60;;
31966;SDS011;18496;52.042;6.812;2022-12-07T06:35:52;12.00;;;2.55;;
31966;SDS011;18496;52.042;6.812;2022-12-07T06:37:56;7.18;;;2.80;;
31966;SDS011;18496;52.042;6.812;2022-12-07T06:40:00;10.02;;;2.40;;
31966;SDS011;18496;52.042;6.812;2022-12-07T06:42:03;8.15;;;2.75;;
31966;SDS011;18496;52.042;6.812;2022-12-07T06:44:07;9.57;;;2.88;;
31966;SDS011;18496;52.042;6.812;2022-12-07T06:46:11;9.07;;;2.63;;
31966;SDS011;18496;52.042;6.812;2022-12-07T06:48:14;9.77;;;2.63;;
31966;SDS011;18496;52.042;6.812;2022-12-07T06:50:18;9.77;;;2.42;;
31966;SDS011;18496;52.042;6.812;2022-12-07T06:52:21;17.27;;;3.47;;
31966;SDS011;18496;52.042;6.812;2022-12-07T06:54:25;7.30;;;2.50;;
31966;SDS011;18496;52.042;6.812;2022-12-07T06:56:29;12.23;;;3.28;;
31966;SDS011;18496;52.042;6.812;2022-12-07T06:58:33;8.68;;;2.97;;
31966;SDS011;18496;52.042;6.812;2022-12-07T07:00:36;11.75;;;3.17;;
31966;SDS011;18496;52.042;6.812;2022-12-07T07:02:40;10.38;;;2.72;;
31966;SDS011;18496;52.042;6.812;2022-12-07T07:04:44;13.40;;;3.20;;
31966;SDS011;18496;52.042;6.812;2022-12-07T07:06:47;15.07;;;3.58;;
31966;SDS011;18496;52.042;6.812;2022-12-07T07:08:51;7.82;;;2.85;;
31966;SDS011;18496;52.042;6.812;2022-12-07T07:10:55;11.25;;;3.45;;
31966;SDS011;18496;52.042;6.812;2022-12-07T07:12:58;13.00;;;3.58;;
31966;SDS011;18496;52.042;6.812;2022-12-07T07:15:06;9.88;;;2.42;;
31966;SDS011;18496;52.042;6.812;2022-12-07T07:17:10;8.95;;;2.60;;
31966;SDS011;18496;52.042;6.812;2022-12-07T07:19:14;8.13;;;2.75;;
31966;SDS011;18496;52.042;6.812;2022-12-07T07:21:17;9.93;;;2.55;;
31966;SDS011;18496;52.042;6.812;2022-12-07T07:23:21;8.75;;;3.30;;
31966;SDS011;18496;52.042;6.812;2022-12-07T07:25:25;11.57;;;3.85;;
31966;SDS011;18496;52.042;6.812;2022-12-07T07:27:29;12.43;;;2.97;;
31966;SDS011;18496;52.042;6.812;2022-12-07T07:29:32;13.68;;;3.85;;
31966;SDS011;18496;52.042;6.812;2022-12-07T07:31:36;13.00;;;3.47;;
31966;SDS011;18496;52.042;6.812;2022-12-07T07:33:44;7.25;;;3.08;;
31966;SDS011;18496;52.042;6.812;2022-12-07T07:35:52;13.45;;;3.55;;
31966;SDS011;18496;52.042;6.812;2022-12-07T07:37:55;10.43;;;3.38;;
31966;SDS011;18496;52.042;6.812;2022-12-07T07:39:59;9.70;;;3.17;;
31966;SDS011;18496;52.042;6.812;2022-12-07T07:42:03;14.27;;;3.17;;
31966;SDS011;18496;52.042;6.812;2022-12-07T07:44:09;14.13;;;3.63;;
31966;SDS011;18496;52.042;6.812;2022-12-07T07:46:13;9.70;;;3.15;;
31966;SDS011;18496;52.042;6.812;2022-12-07T07:48:16;7.07;;;2.88;;
31966;SDS011;18496;52.042;6.812;2022-12-07T07:50:20;13.70;;;3.80;;
31966;SDS011;18496;52.042;6.812;2022-12-07T07:52:25;13.40;;;3.20;;
31966;SDS011;18496;52.042;6.812;2022-12-07T07:54:28;11.55;;;3.78;;
31966;SDS011;18496;52.042;6.812;2022-12-07T07:56:32;10.60;;;3.40;;
31966;SDS011;18496;52.042;6.812;2022-12-07T07:58:36;8.20;;;3.50;;
31966;SDS011;18496;52.042;6.812;2022-12-07T08:00:39;9.00;;;3.58;;
31966;SDS011;18496;52.042;6.812;2022-12-07T08:02:43;15.27;;;3.97;;
31966;SDS011;18496;52.042;6.812;2022-12-07T08:04:47;12.70;;;3.75;;
31966;SDS011;18496;52.042;6.812;2022-12-07T08:06:51;8.55;;;3.42;;
31966;SDS011;18496;52.042;6.812;2022-12-07T08:08:54;8.05;;;3.30;;
31966;SDS011;18496;52.042;6.812;2022-12-07T08:10:58;13.60;;;3.88;;
31966;SDS011;18496;52.042;6.812;2022-12-07T08:13:04;8.07;;;3.70;;
31966;SDS011;18496;52.042;6.812;2022-12-07T08:15:14;8.27;;;3.83;;
31966;SDS011;18496;52.042;6.812;2022-12-07T08:17:17;11.63;;;3.45;;
31966;SDS011;18496;52.042;6.812;2022-12-07T08:19:21;15.23;;;3.95;;
31966;SDS011;18496;52.042;6.812;2022-12-07T08:21:25;15.23;;;3.53;;
31966;SDS011;18496;52.042;6.812;2022-12-07T08:23:29;14.15;;;3.10;;
31966;SDS011;18496;52.042;6.812;2022-12-07T08:25:33;23.85;;;11.18;;
31966;SDS011;18496;52.042;6.812;2022-12-07T08:27:37;18.48;;;8.05;;
31966;SDS011;18496;52.042;6.812;2022-12-07T08:29:40;10.95;;;4.55;;
31966;SDS011;18496;52.042;6.812;2022-12-07T08:31:44;56.28;;;29.60;;
31966;SDS011;18496;52.042;6.812;2022-12-07T08:33:48;34.72;;;18.27;;
31966;SDS011;18496;52.042;6.812;2022-12-07T08:35:52;18.40;;;6.43;;
31966;SDS011;18496;52.042;6.812;2022-12-07T08:37:56;14.38;;;3.22;;
31966;SDS011;18496;52.042;6.812;2022-12-07T08:40:00;15.43;;;5.35;;
31966;SDS011;18496;52.042;6.812;2022-12-07T08:42:04;13.43;;;6.03;;
31966;SDS011;18496;52.042;6.812;2022-12-07T08:44:08;16.48;;;4.85;;
31966;SDS011;18496;52.042;6.812;2022-12-07T08:46:13;21.80;;;5.30;;
31966;SDS011;18496;52.042;6.812;2022-12-07T08:48:24;33.70;;;14.57;;
31966;SDS011;18496;52.042;6.812;2022-12-07T08:50:28;19.58;;;6.90;;
31966;SDS011;18496;52.042;6.812;2022-12-07T08:52:33;9.23;;;4.50;;
31966;SDS011;18496;52.042;6.812;2022-12-07T08:54:38;16.48;;;6.13;;
31966;SDS011;18496;52.042;6.812;2022-12-07T08:56:43;14.32;;;7.75;;
31966;SDS011;18496;52.042;6.812;2022-12-07T08:58:49;24.50;;;11.48;;
31966;SDS011;18496;52.042;6.812;2022-12-07T09:00:52;25.58;;;6.55;;
31966;SDS011;18496;52.042;6.812;2022-12-07T09:02:56;21.40;;;7.10;;
31966;SDS011;18496;52.042;6.812;2022-12-07T09:05:00;13.50;;;6.07;;
31966;SDS011;18496;52.042;6.812;2022-12-07T09:07:03;12.50;;;4.40;;
31966;SDS011;18496;52.042;6.812;2022-12-07T09:09:08;11.45;;;4.45;;
31966;SDS011;18496;52.042;6.812;2022-12-07T09:11:13;13.10;;;3.47;;
31966;SDS011;18496;52.042;6.812;2022-12-07T09:13:17;14.02;;;3.28;;
31966;SDS011;18496;52.042;6.812;2022-12-07T09:15:21;10.80;;;2.92;;
31966;SDS011;18496;52.042;6.812;2022-12-07T09:17:24;9.57;;;3.72;;
31966;SDS011;18496;52.042;6.812;2022-12-07T09:30:14;10.38;;;4.03;;
31966;SDS011;18496;52.042;6.812;2022-12-07T09:33:31;6.90;;;2.85;;
31966;SDS011;18496;52.042;6.812;2022-12-07T09:35:35;14.55;;;3.05;;
31966;SDS011;18496;52.042;6.812;2022-12-07T09:37:39;11.68;;;2.90;;
31966;SDS011;18496;52.042;6.812;2022-12-07T09:39:43;7.80;;;3.10;;
31966;SDS011;18496;52.042;6.812;2022-12-07T09:41:46;15.60;;;2.83;;
31966;SDS011;18496;52.042;6.812;2022-12-07T09:43:50;6.60;;;2.13;;
31966;SDS011;18496;52.042;6.812;2022-12-07T09:45:55;6.65;;;3.55;;
31966;SDS011;18496;52.042;6.812;2022-12-07T09:47:59;19.92;;;3.67;;
31966;SDS011;18496;52.042;6.812;2022-12-07T09:50:06;22.83;;;8.85;;
31966;SDS011;18496;52.042;6.812;2022-12-07T09:52:20;17.40;;;5.18;;
31966;SDS011;18496;52.042;6.812;2022-12-07T09:54:29;13.45;;;3.28;;
31966;SDS011;18496;52.042;6.812;2022-12-07T09:56:34;12.45;;;3.20;;
31966;SDS011;18496;52.042;6.812;2022-12-07T09:58:38;13.32;;;3.72;;
31966;SDS011;18496;52.042;6.812;2022-12-07T10:00:41;10.60;;;3.50;;
31966;SDS011;18496;52.042;6.812;2022-12-07T10:05:03;10.82;;;2.88;;
31966;SDS011;18496;52.042;6.812;2022-12-07T10:07:08;10.02;;;3.22;;
31966;SDS011;18496;52.042;6.812;2022-12-07T10:09:14;14.32;;;4.00;;
31966;SDS011;18496;52.042;6.812;2022-12-07T10:11:19;9.75;;;3.40;;
31966;SDS011;18496;52.042;6.812;2022-12-07T10:13:42;14.23;;;3.53;;
31966;SDS011;18496;52.042;6.812;2022-12-07T10:15:57;19.88;;;4.53;;
31966;SDS011;18496;52.042;6.812;2022-12-07T10:18:01;10.88;;;2.65;;
31966;SDS011;18496;52.042;6.812;2022-12-07T10:22:19;12.05;;;3.95;;
31966;SDS011;18496;52.042;6.812;2022-12-07T10:24:23;10.80;;;2.97;;
31966;SDS011;18496;52.042;6.812;2022-12-07T10:28:41;8.43;;;1.98;;
31966;SDS011;18496;52.042;6.812;2022-12-07T10:30:52;9.65;;;2.88;;
31966;SDS011;18496;52.042;6.812;2022-12-07T10:32:57;9.05;;;3.00;;
31966;SDS011;18496;52.042;6.812;2022-12-07T11:08:51;7.22;;;2.45;;
31966;SDS011;18496;52.042;6.812;2022-12-07T11:11:14;4.60;;;1.70;;
31966;SDS011;18496;52.042;6.812;2022-12-07T11:13:52;8.18;;;2.10;;
31966;SDS011;18496;52.042;6.812;2022-12-07T11:25:34;4.47;;;1.35;;
31966;SDS011;18496;52.042;6.812;2022-12-07T11:27:29;11.95;;;2.33;;
31966;SDS011;18496;52.042;6.812;2022-12-07T11:32:15;11.20;;;2.08;;
31966;SDS011;18496;52.042;6.812;2022-12-07T11:37:24;16.58;;;5.00;;
31966;SDS011;18496;52.042;6.812;2022-12-07T11:39:35;11.77;;;2.97;;
31966;SDS011;18496;52.042;6.812;2022-12-07T11:41:42;14.82;;;3.65;;
31966;SDS011;18496;52.042;6.812;2022-12-07T11:46:11;18.73;;;9.80;;
31966;SDS011;18496;52.042;6.812;2022-12-07T11:48:30;10.70;;;2.55;;
31966;SDS011;18496;52.042;6.812;2022-12-07T11:50:40;7.07;;;2.15;;
31966;SDS011;18496;52.042;6.812;2022-12-07T11:55:06;13.13;;;2.10;;
31966;SDS011;18496;52.042;6.812;2022-12-07T11:57:41;13.63;;;2.90;;
31966;SDS011;18496;52.042;6.812;2022-12-07T12:00:11;7.70;;;1.85;;
31966;SDS011;18496;52.042;6.812;2022-12-07T12:02:37;8.65;;;1.92;;
31966;SDS011;18496;52.042;6.812;2022-12-07T12:05:12;8.65;;;1.67;;
31966;SDS011;18496;52.042;6.812;2022-12-07T12:07:22;11.35;;;2.13;;
31966;SDS011;18496;52.042;6.812;2022-12-07T12:09:29;9.85;;;2.10;;
31966;SDS011;18496;52.042;6.812;2022-12-07T12:11:42;9.93;;;2.15;;
31966;SDS011;18496;52.042;6.812;2022-12-07T12:19:32;8.10;;;2.42;;
31966;SDS011;18496;52.042;6.812;2022-12-07T12:21:39;11.20;;;1.75;;
31966;SDS011;18496;52.042;6.812;2022-12-07T12:23:45;10.45;;;1.98;;
31966;SDS011;18496;52.042;6.812;2022-12-07T12:26:23;9.77;;;2.25;;
31966;SDS011;18496;52.042;6.812;2022-12-07T12:31:13;12.10;;;1.63;;
31966;SDS011;18496;52.042;6.812;2022-12-07T12:33:27;18.35;;;2.42;;
31966;SDS011;18496;52.042;6.812;2022-12-07T12:37:39;6.63;;;1.50;;
31966;SDS011;18496;52.042;6.812;2022-12-07T12:40:07;2.33;;;1.52;;
31966;SDS011;18496;52.042;6.812;2022-12-07T12:42:43;8.43;;;2.10;;
31966;SDS011;18496;52.042;6.812;2022-12-07T12:45:04;7.03;;;1.35;;
31966;SDS011;18496;52.042;6.812;2022-12-07T12:47:42;4.72;;;1.55;;
31966;SDS011;18496;52.042;6.812;2022-12-07T12:52:46;5.03;;;1.33;;
31966;SDS011;18496;52.042;6.812;2022-12-07T12:57:09;8.18;;;1.88;;
31966;SDS011;18496;52.042;6.812;2022-12-07T12:59:36;8.77;;;1.63;;
31966;SDS011;18496;52.042;6.812;2022-12-07T13:01:42;4.88;;;1.70;;
31966;SDS011;18496;52.042;6.812;2022-12-07T13:03:53;11.68;;;1.63;;
31966;SDS011;18496;52.042;6.812;2022-12-07T13:06:17;8.38;;;1.55;;
31966;SDS011;18496;52.042;6.812;2022-12-07T13:08:30;6.68;;;1.35;;
31966;SDS011;18496;52.042;6.812;2022-12-07T13:10:35;6.78;;;1.45;;
31966;SDS011;18496;52.042;6.812;2022-12-07T13:12:42;5.65;;;1.30;;
31966;SDS011;18496;52.042;6.812;2022-12-07T13:14:56;10.13;;;2.13;;
31966;SDS011;18496;52.042;6.812;2022-12-07T13:17:01;9.48;;;1.25;;
31966;SDS011;18496;52.042;6.812;2022-12-07T13:19:27;5.18;;;1.67;;
31966;SDS011;18496;52.042;6.812;2022-12-07T13:21:46;6.70;;;2.00;;
31966;SDS011;18496;52.042;6.812;2022-12-07T13:23:57;5.10;;;1.73;;
31966;SDS011;18496;52.042;6.812;2022-12-07T13:28:17;8.80;;;1.77;;
31966;SDS011;18496;52.042;6.812;2022-12-07T13:30:23;11.70;;;1.85;;
31966;SDS011;18496;52.042;6.812;2022-12-07T13:32:27;12.40;;;1.42;;
31966;SDS011;18496;52.042;6.812;2022-12-07T13:34:36;6.90;;;1.63;;
31966;SDS011;18496;52.042;6.812;2022-12-07T13:36:44;5.95;;;1.88;;
31966;SDS011;18496;52.042;6.812;2022-12-07T13:38:58;11.35;;;2.35;;
31966;SDS011;18496;52.042;6.812;2022-12-07T13:41:14;7.45;;;2.10;;
31966;SDS011;18496;52.042;6.812;2022-12-07T13:43:21;9.15;;;2.53;;
31966;SDS011;18496;52.042;6.812;2022-12-07T13:45:26;8.55;;;2.47;;
31966;SDS011;18496;52.042;6.812;2022-12-07T13:47:54;7.80;;;2.05;;
31966;SDS011;18496;52.042;6.812;2022-12-07T13:50:01;15.98;;;2.45;;
31966;SDS011;18496;52.042;6.812;2022-12-07T13:52:24;7.72;;;2.17;;
31966;SDS011;18496;52.042;6.812;2022-12-07T13:54:33;4.63;;;1.38;;
31966;SDS011;18496;52.042;6.812;2022-12-07T13:56:36;11.57;;;3.30;;
31966;SDS011;18496;52.042;6.812;2022-12-07T13:58:42;15.80;;;2.40;;
31966;SDS011;18496;52.042;6.812;2022-12-07T14:00:46;30.63;;;11.55;;
31966;SDS011;18496;52.042;6.812;2022-12-07T14:02:55;68.28;;;33.58;;
31966;SDS011;18496;52.042;6.812;2022-12-07T14:05:08;34.60;;;18.65;;
31966;SDS011;18496;52.042;6.812;2022-12-07T14:07:26;18.55;;;7.30;;
31966;SDS011;18496;52.042;6.812;2022-12-07T14:09:31;15.05;;;4.05;;
31966;SDS011;18496;52.042;6.812;2022-12-07T14:11:35;6.93;;;2.22;;
31966;SDS011;18496;52.042;6.812;2022-12-07T14:15:51;6.22;;;2.45;;
31966;SDS011;18496;52.042;6.812;2022-12-07T15:42:38;12.07;;;2.80;;
31966;SDS011;18496;52.042;6.812;2022-12-07T15:44:45;11.80;;;2.78;;
31966;SDS011;18496;52.042;6.812;2022-12-07T15:47:07;9.23;;;2.75;;
31966;SDS011;18496;52.042;6.812;2022-12-07T15:49:12;7.05;;;2.97;;
31966;SDS011;18496;52.042;6.812;2022-12-07T15:51:20;10.68;;;2.60;;
31966;SDS011;18496;52.042;6.812;2022-12-07T15:53:24;19.92;;;3.65;;
31966;SDS011;18496;52.042;6.812;2022-12-07T15:55:28;13.00;;;2.90;;
31966;SDS011;18496;52.042;6.812;2022-12-07T15:57:32;12.05;;;3.88;;
31966;SDS011;18496;52.042;6.812;2022-12-07T15:59:36;14.40;;;3.72;;
31966;SDS011;18496;52.042;6.812;2022-12-07T16:01:40;11.68;;;3.67;;
31966;SDS011;18496;52.042;6.812;2022-12-07T16:03:44;13.55;;;3.08;;
31966;SDS011;18496;52.042;6.812;2022-12-07T16:05:49;11.10;;;3.40;;
31966;SDS011;18496;52.042;6.812;2022-12-07T16:07:54;12.70;;;3.70;;